Time;durP1;ratioP1;P1;durP2;ratioP2;P2;SDS_P1;SDS_P2;PMS_P1;PMS_P2;Temp;Humidity;BMP_temperature;BMP_pressure;BME280_temperature;BME280_humidity;BME280_pressure;Samples;Min_cycle;Max_cycle;Signal;HPM_P1;HPM_P2
2022/01/28 00:02:32;;;;;;;0.60;0.60;;;;;;;;;;5057052;28;20614;-62
2022/01/28 00:05:01;;;;;;;0.60;0.60;;;;;;;;;;5056881;28;20227;-62
2022/01/28 00:07:29;;;;;;;0.70;0.70;;;;;;;;;;5056605;28;20568;-63
2022/01/28 00:09:56;;;;;;;0.63;0.57;;;;;;;;;;5056617;28;20483;-62
2022/01/28 00:12:25;;;;;;;0.63;0.60;;;;;;;;;;5061658;28;20196;-62
2022/01/28 00:14:56;;;;;;;0.60;0.60;;;;;;;;;;5076704;28;20208;-62
2022/01/28 00:17:53;;;;;;;0.50;0.50;;;;;;;;;;5075235;28;20254;-62
2022/01/28 00:37:03;;;;;;;0.50;0.50;;;;;;;;;;5037201;28;20229;-62
2022/01/28 00:39:30;;;;;;;0.63;0.52;;;;;;;;;;5056314;28;20201;-63
2022/01/28 00:41:57;;;;;;;0.50;0.50;;;;;;;;;;5065138;28;20200;-62
2022/01/28 00:44:24;;;;;;;0.73;0.73;;;;;;;;;;5078509;28;20227;-62
2022/01/28 00:46:52;;;;;;;0.50;0.50;;;;;;;;;;5078338;28;20207;-62
2022/01/28 00:49:19;;;;;;;0.60;0.50;;;;;;;;;;5080010;28;20477;-63
2022/01/28 00:51:48;;;;;;;0.68;0.50;;;;;;;;;;5075979;28;20220;-62
2022/01/28 00:54:17;;;;;;;0.52;0.40;;;;;;;;;;5059760;28;20201;-62
2022/01/28 00:56:44;;;;;;;0.40;0.40;;;;;;;;;;5059974;28;20232;-62
2022/01/28 00:59:12;;;;;;;1.30;0.40;;;;;;;;;;5060003;28;20205;-62
2022/01/28 01:01:39;;;;;;;0.60;0.50;;;;;;;;;;5073290;28;20208;-62
2022/01/28 01:04:07;;;;;;;0.60;0.60;;;;;;;;;;5061547;28;20205;-62
2022/01/28 01:06:35;;;;;;;0.40;0.40;;;;;;;;;;5059932;28;20596;-62
2022/01/28 01:09:04;;;;;;;0.40;0.40;;;;;;;;;;5060062;28;20212;-62
2022/01/28 01:11:31;;;;;;;0.50;0.50;;;;;;;;;;5059940;28;20197;-62
2022/01/28 01:14:00;;;;;;;0.68;0.68;;;;;;;;;;5059954;28;20208;-62
2022/01/28 01:16:31;;;;;;;0.40;0.40;;;;;;;;;;5059133;28;20221;-62
2022/01/28 01:19:14;;;;;;;0.60;0.40;;;;;;;;;;5060414;28;20201;-62
2022/01/28 01:21:43;;;;;;;0.50;0.50;;;;;;;;;;5059073;28;20225;-62
2022/01/28 01:24:21;;;;;;;0.40;0.40;;;;;;;;;;5070041;28;20200;-62
2022/01/28 01:26:49;;;;;;;0.70;0.50;;;;;;;;;;5074170;28;20196;-62
2022/01/28 01:29:19;;;;;;;0.52;0.40;;;;;;;;;;5059070;28;20204;-62
2022/01/28 01:31:46;;;;;;;0.90;0.60;;;;;;;;;;5060308;28;20577;-62
2022/01/28 01:34:16;;;;;;;0.90;0.57;;;;;;;;;;5073654;28;20223;-62
2022/01/28 01:36:44;;;;;;;1.00;0.52;;;;;;;;;;5070842;28;20674;-62
2022/01/28 01:39:15;;;;;;;1.48;0.50;;;;;;;;;;5059241;28;20209;-62
2022/01/28 01:41:47;;;;;;;0.38;0.30;;;;;;;;;;5066972;28;20215;-63
2022/01/28 01:44:24;;;;;;;0.50;0.30;;;;;;;;;;5067464;28;20752;-62
2022/01/28 01:52:00;;;;;;;0.47;0.40;;;;;;;;;;5059308;28;20279;-62
2022/01/28 01:52:43;;;;;;;0.30;0.30;;;;;;;;;;5076427;28;20358;-62
2022/01/28 01:55:12;;;;;;;0.47;0.40;;;;;;;;;;5058363;28;20208;-62
2022/01/28 01:57:40;;;;;;;0.40;0.40;;;;;;;;;;5074293;28;20518;-62
2022/01/28 02:00:15;;;;;;;0.50;0.40;;;;;;;;;;5078272;28;20215;-62
2022/01/28 02:02:42;;;;;;;0.32;0.32;;;;;;;;;;5078527;28;20212;-63
2022/01/28 02:05:10;;;;;;;0.40;0.40;;;;;;;;;;5059799;28;20208;-63
2022/01/28 02:07:39;;;;;;;0.88;0.32;;;;;;;;;;5058346;28;20197;-63
2022/01/28 02:10:07;;;;;;;1.65;0.40;;;;;;;;;;5058328;28;20284;-62
2022/01/28 02:12:46;;;;;;;0.40;0.30;;;;;;;;;;5058477;28;20300;-62
2022/01/28 02:15:13;;;;;;;0.63;0.30;;;;;;;;;;5058110;28;20216;-62
2022/01/28 02:17:41;;;;;;;0.50;0.35;;;;;;;;;;5064484;28;20639;-62
2022/01/28 02:20:09;;;;;;;0.40;0.40;;;;;;;;;;5076926;28;20588;-62
2022/01/28 02:22:38;;;;;;;0.50;0.40;;;;;;;;;;5077893;28;20201;-62
2022/01/28 02:25:06;;;;;;;0.50;0.50;;;;;;;;;;5076964;28;20208;-62
2022/01/28 02:27:33;;;;;;;0.52;0.40;;;;;;;;;;5072291;28;20200;-62
2022/01/28 02:30:00;;;;;;;0.43;0.40;;;;;;;;;;5058475;28;20499;-62
2022/01/28 02:32:28;;;;;;;0.30;0.30;;;;;;;;;;5059244;28;20288;-62
2022/01/28 02:34:55;;;;;;;1.13;0.30;;;;;;;;;;5073446;28;20208;-62
2022/01/28 02:37:23;;;;;;;0.60;0.50;;;;;;;;;;5062944;28;20224;-62
2022/01/28 02:39:52;;;;;;;0.45;0.30;;;;;;;;;;5057979;28;20209;-62
2022/01/28 02:42:29;;;;;;;0.50;0.40;;;;;;;;;;5057123;28;20200;-62
2022/01/28 02:44:58;;;;;;;2.80;0.50;;;;;;;;;;5059060;28;20636;-62
2022/01/28 02:47:33;;;;;;;1.02;0.30;;;;;;;;;;5075031;28;20212;-62
2022/01/28 02:50:02;;;;;;;0.68;0.38;;;;;;;;;;5077737;28;20330;-62
2022/01/28 02:52:36;;;;;;;0.57;0.30;;;;;;;;;;5076908;28;20228;-62
2022/01/28 02:55:10;;;;;;;1.83;0.40;;;;;;;;;;5077873;28;20234;-62
2022/01/28 02:57:40;;;;;;;0.45;0.40;;;;;;;;;;5061120;28;20221;-62
2022/01/28 03:00:08;;;;;;;0.50;0.30;;;;;;;;;;5050056;28;20289;-62
2022/01/28 03:02:36;;;;;;;0.80;0.30;;;;;;;;;;5057983;28;20503;-62
2022/01/28 03:05:28;;;;;;;0.43;0.30;;;;;;;;;;5058419;28;20213;-62
2022/01/28 03:07:55;;;;;;;1.10;0.30;;;;;;;;;;5076220;28;20287;-62
2022/01/28 03:10:31;;;;;;;0.70;0.38;;;;;;;;;;5067554;28;20349;-62
2022/01/28 03:13:13;;;;;;;0.30;0.30;;;;;;;;;;5069613;28;20210;-62
2022/01/28 03:15:42;;;;;;;0.30;0.30;;;;;;;;;;5077233;28;20219;-62
2022/01/28 03:18:13;;;;;;;0.60;0.40;;;;;;;;;;5075039;28;20231;-62
2022/01/28 03:20:44;;;;;;;0.35;0.25;;;;;;;;;;5077043;28;20207;-62
2022/01/28 03:23:11;;;;;;;0.60;0.35;;;;;;;;;;5057894;28;20287;-62
2022/01/28 03:25:43;;;;;;;0.25;0.22;;;;;;;;;;5057407;28;20212;-62
2022/01/28 03:28:13;;;;;;;0.82;0.43;;;;;;;;;;5057474;28;20577;-62
2022/01/28 03:30:41;;;;;;;1.35;0.40;;;;;;;;;;5061001;28;20239;-62
2022/01/28 03:33:08;;;;;;;0.80;0.40;;;;;;;;;;5077128;28;20204;-62
2022/01/28 03:35:36;;;;;;;1.33;0.40;;;;;;;;;;5074794;28;20586;-62
2022/01/28 03:38:06;;;;;;;0.40;0.32;;;;;;;;;;5058210;28;20228;-62
2022/01/28 03:40:36;;;;;;;0.75;0.40;;;;;;;;;;5057652;28;20228;-62
2022/01/28 03:43:05;;;;;;;0.40;0.30;;;;;;;;;;5076541;28;20226;-62
2022/01/28 03:45:33;;;;;;;0.38;0.30;;;;;;;;;;5077406;28;20216;-62
2022/01/28 03:48:00;;;;;;;0.52;0.30;;;;;;;;;;5074856;28;20584;-62
2022/01/28 03:50:32;;;;;;;0.50;0.50;;;;;;;;;;5076363;28;20236;-62
2022/01/28 03:53:00;;;;;;;0.50;0.30;;;;;;;;;;5076784;28;20207;-62
2022/01/28 03:55:27;;;;;;;0.50;0.30;;;;;;;;;;5076721;28;20296;-62
2022/01/28 03:57:55;;;;;;;0.30;0.28;;;;;;;;;;5076126;28;20613;-62
2022/01/28 04:00:27;;;;;;;0.45;0.30;;;;;;;;;;5075661;28;20216;-62
2022/01/28 04:03:04;;;;;;;0.47;0.30;;;;;;;;;;5057045;28;20209;-62
2022/01/28 04:11:27;;;;;;;0.77;0.40;;;;;;;;;;5076398;28;20192;-62
2022/01/28 04:13:56;;;;;;;0.60;0.30;;;;;;;;;;5076392;28;20707;-62
2022/01/28 04:17:18;;;;;;;0.38;0.38;;;;;;;;;;5076647;28;20215;-62
2022/01/28 04:19:20;;;;;;;0.50;0.30;;;;;;;;;;5080081;28;20298;-62
2022/01/28 04:21:47;;;;;;;0.77;0.43;;;;;;;;;;5064748;28;20216;-62
2022/01/28 04:24:15;;;;;;;0.60;0.38;;;;;;;;;;5060553;28;20499;-62
2022/01/28 04:26:42;;;;;;;0.70;0.40;;;;;;;;;;5059871;28;20201;-62
2022/01/28 04:29:11;;;;;;;0.52;0.30;;;;;;;;;;5060136;28;20216;-62
2022/01/28 04:31:43;;;;;;;0.80;0.30;;;;;;;;;;5061013;28;20236;-62
2022/01/28 04:34:11;;;;;;;0.63;0.40;;;;;;;;;;5063817;28;20239;-62
2022/01/28 04:36:46;;;;;;;0.70;0.40;;;;;;;;;;5062470;28;20198;-62
2022/01/28 04:39:20;;;;;;;0.43;0.30;;;;;;;;;;5059724;28;20330;-62
2022/01/28 04:41:57;;;;;;;0.30;0.30;;;;;;;;;;5060022;28;20236;-62
2022/01/28 04:44:32;;;;;;;0.40;0.30;;;;;;;;;;5059727;28;20201;-62
2022/01/28 04:47:06;;;;;;;0.60;0.50;;;;;;;;;;5060946;28;20592;-63
2022/01/28 04:49:48;;;;;;;0.90;0.38;;;;;;;;;;5059907;28;20326;-62
2022/01/28 04:52:43;;;;;;;1.42;0.50;;;;;;;;;;5059039;28;20714;-62
2022/01/28 04:55:22;;;;;;;0.68;0.50;;;;;;;;;;5059138;28;20201;-62
2022/01/28 04:58:03;;;;;;;0.35;0.30;;;;;;;;;;5059201;28;20318;-62
2022/01/28 05:00:41;;;;;;;1.05;0.40;;;;;;;;;;5059339;28;20200;-62
2022/01/28 05:03:29;;;;;;;0.60;0.30;;;;;;;;;;5075459;28;20273;-62
2022/01/28 05:06:27;;;;;;;0.55;0.32;;;;;;;;;;5059426;28;20692;-62
2022/01/28 05:23:18;;;;;;;0.70;0.50;;;;;;;;;;5060082;28;20216;-62
2022/01/28 05:26:01;;;;;;;0.50;0.32;;;;;;;;;;5058747;28;20266;-62
2022/01/28 05:28:29;;;;;;;0.93;0.30;;;;;;;;;;5059108;28;20193;-62
2022/01/28 05:30:56;;;;;;;0.60;0.40;;;;;;;;;;5059184;28;20280;-62
2022/01/28 05:33:24;;;;;;;0.47;0.32;;;;;;;;;;5058440;28;20209;-62
2022/01/28 05:35:52;;;;;;;0.63;0.38;;;;;;;;;;5063309;28;20201;-62
2022/01/28 05:38:20;;;;;;;0.82;0.40;;;;;;;;;;5059070;28;20606;-62
2022/01/28 05:40:47;;;;;;;0.82;0.50;;;;;;;;;;5058056;28;20209;-62
2022/01/28 05:43:15;;;;;;;1.00;0.45;;;;;;;;;;5057485;28;20224;-62
2022/01/28 05:45:43;;;;;;;0.60;0.47;;;;;;;;;;5058178;28;20205;-62
2022/01/28 05:48:17;;;;;;;0.85;0.50;;;;;;;;;;5057035;28;20243;-62
2022/01/28 05:50:46;;;;;;;0.47;0.43;;;;;;;;;;5057260;28;20240;-62
2022/01/28 05:53:15;;;;;;;0.80;0.40;;;;;;;;;;5057505;28;20212;-62
2022/01/28 05:55:43;;;;;;;1.10;0.52;;;;;;;;;;5056808;28;20201;-62
2022/01/28 05:58:10;;;;;;;0.60;0.40;;;;;;;;;;5056617;28;20252;-62
2022/01/28 06:00:37;;;;;;;0.93;0.40;;;;;;;;;;5055652;28;20756;-62
2022/01/28 06:03:05;;;;;;;0.80;0.40;;;;;;;;;;5056738;28;20201;-62
2022/01/28 06:05:32;;;;;;;1.08;0.40;;;;;;;;;;5066982;28;20196;-62
2022/01/28 06:08:00;;;;;;;1.05;0.50;;;;;;;;;;5060830;28;20212;-62
2022/01/28 06:10:29;;;;;;;0.77;0.40;;;;;;;;;;5056062;28;20201;-62
2022/01/28 06:12:57;;;;;;;0.43;0.40;;;;;;;;;;5055690;28;20205;-63
2022/01/28 06:15:24;;;;;;;0.95;0.40;;;;;;;;;;5059816;28;20520;-63
2022/01/28 06:17:52;;;;;;;0.47;0.40;;;;;;;;;;5044780;28;20225;-62
2022/01/28 06:20:19;;;;;;;0.73;0.45;;;;;;;;;;5056273;28;20213;-62
2022/01/28 06:22:47;;;;;;;0.73;0.40;;;;;;;;;;5055287;28;20212;-62
2022/01/28 06:25:15;;;;;;;1.00;0.40;;;;;;;;;;5055965;28;20201;-62
2022/01/28 06:27:45;;;;;;;0.95;0.47;;;;;;;;;;5061702;28;20587;-63
2022/01/28 06:30:13;;;;;;;0.73;0.50;;;;;;;;;;5075916;28;20211;-63
2022/01/28 06:32:40;;;;;;;1.02;0.47;;;;;;;;;;5075079;28;20232;-62
2022/01/28 06:35:08;;;;;;;0.88;0.47;;;;;;;;;;5074709;28;20204;-61
2022/01/28 06:37:37;;;;;;;0.77;0.40;;;;;;;;;;5059349;28;20260;-63
2022/01/28 06:40:05;;;;;;;1.05;0.40;;;;;;;;;;5076378;28;20212;-62
2022/01/28 06:42:33;;;;;;;0.77;0.40;;;;;;;;;;5073780;28;20200;-62
2022/01/28 06:45:02;;;;;;;0.50;0.38;;;;;;;;;;5075249;28;20231;-62
2022/01/28 06:47:29;;;;;;;0.77;0.40;;;;;;;;;;5073252;28;20200;-62
2022/01/28 06:49:56;;;;;;;0.73;0.30;;;;;;;;;;5068762;28;20235;-62
2022/01/28 06:52:24;;;;;;;1.00;0.40;;;;;;;;;;5065774;28;20712;-62
2022/01/28 06:54:51;;;;;;;1.00;0.50;;;;;;;;;;5075176;28;20465;-62
2022/01/28 06:57:19;;;;;;;1.10;0.60;;;;;;;;;;5075515;28;20200;-61
2022/01/28 06:59:46;;;;;;;0.98;0.63;;;;;;;;;;5075657;28;20628;-62
2022/01/28 07:02:15;;;;;;;0.55;0.35;;;;;;;;;;5069189;28;20286;-62
2022/01/28 07:04:42;;;;;;;0.85;0.45;;;;;;;;;;5061209;28;20201;-62
2022/01/28 07:07:09;;;;;;;0.73;0.45;;;;;;;;;;5067533;28;20211;-61
2022/01/28 07:09:37;;;;;;;0.50;0.30;;;;;;;;;;5073063;28;20216;-62
2022/01/28 07:12:04;;;;;;;0.55;0.40;;;;;;;;;;5074953;28;20204;-61
2022/01/28 07:14:32;;;;;;;0.40;0.30;;;;;;;;;;5075579;28;20204;-62
2022/01/28 07:16:59;;;;;;;0.52;0.38;;;;;;;;;;5074081;28;20200;-62
2022/01/28 07:19:28;;;;;;;0.80;0.40;;;;;;;;;;5075057;28;20228;-62
2022/01/28 07:21:55;;;;;;;0.68;0.40;;;;;;;;;;5075771;28;20203;-62
2022/01/28 07:24:22;;;;;;;0.95;0.50;;;;;;;;;;5075228;28;20196;-62
2022/01/28 07:26:50;;;;;;;0.82;0.45;;;;;;;;;;5075054;28;20196;-62
2022/01/28 07:29:17;;;;;;;0.73;0.50;;;;;;;;;;5075609;28;20489;-62
2022/01/28 07:31:44;;;;;;;1.25;0.60;;;;;;;;;;5073592;28;20196;-62
2022/01/28 07:34:12;;;;;;;0.50;0.32;;;;;;;;;;5075106;28;20204;-62
2022/01/28 07:36:41;;;;;;;0.60;0.38;;;;;;;;;;5064147;28;20197;-62
2022/01/28 07:39:09;;;;;;;0.55;0.40;;;;;;;;;;5056216;28;20255;-62
2022/01/28 07:41:37;;;;;;;0.70;0.57;;;;;;;;;;5062351;28;20197;-62
2022/01/28 07:44:05;;;;;;;0.40;0.40;;;;;;;;;;5074623;28;20543;-62
2022/01/28 07:46:33;;;;;;;0.93;0.40;;;;;;;;;;5065730;28;20226;-62
2022/01/28 07:49:00;;;;;;;0.52;0.47;;;;;;;;;;5054897;28;20208;-62
2022/01/28 07:51:28;;;;;;;1.35;0.50;;;;;;;;;;5071101;28;20220;-61
2022/01/28 07:53:56;;;;;;;0.50;0.40;;;;;;;;;;5077846;28;20204;-62
2022/01/28 07:56:26;;;;;;;1.27;0.40;;;;;;;;;;5071753;28;20204;-62
2022/01/28 07:58:56;;;;;;;0.57;0.40;;;;;;;;;;5058792;28;20561;-62
2022/01/28 08:01:23;;;;;;;0.95;0.57;;;;;;;;;;5057577;28;20213;-62
2022/01/28 08:03:51;;;;;;;2.60;0.60;;;;;;;;;;5058805;28;20212;-62
2022/01/28 08:06:19;;;;;;;2.28;0.60;;;;;;;;;;5058946;28;20215;-62
2022/01/28 08:08:46;;;;;;;3.33;0.68;;;;;;;;;;5059703;28;20212;-62
2022/01/28 08:11:15;;;;;;;2.67;0.70;;;;;;;;;;5075348;28;20211;-62
2022/01/28 08:13:42;;;;;;;2.25;0.47;;;;;;;;;;5079344;28;20303;-62
2022/01/28 08:16:10;;;;;;;1.52;0.55;;;;;;;;;;5071639;28;20498;-62
2022/01/28 08:18:38;;;;;;;1.90;0.70;;;;;;;;;;5063700;28;20299;-62
2022/01/28 08:21:05;;;;;;;1.58;0.50;;;;;;;;;;5059603;28;20205;-62
2022/01/28 08:23:33;;;;;;;1.48;0.45;;;;;;;;;;5063745;28;20227;-62
2022/01/28 08:26:01;;;;;;;1.33;0.60;;;;;;;;;;5077959;28;20200;-62
2022/01/28 08:28:30;;;;;;;1.13;0.70;;;;;;;;;;5078171;28;20211;-62
2022/01/28 08:30:57;;;;;;;0.88;0.40;;;;;;;;;;5077240;28;20223;-62
2022/01/28 08:33:24;;;;;;;1.25;0.57;;;;;;;;;;5072371;28;20581;-62
2022/01/28 08:35:53;;;;;;;0.85;0.47;;;;;;;;;;5062068;28;20212;-62
2022/01/28 08:38:27;;;;;;;0.55;0.50;;;;;;;;;;5070693;28;20704;-62
2022/01/28 08:40:56;;;;;;;1.52;0.50;;;;;;;;;;5058402;28;20200;-62
2022/01/28 08:43:24;;;;;;;0.88;0.50;;;;;;;;;;5050443;28;20236;-63
2022/01/28 08:45:53;;;;;;;1.98;0.50;;;;;;;;;;5057728;28;20585;-62
2022/01/28 08:48:21;;;;;;;1.58;0.45;;;;;;;;;;5057136;28;20224;-62
2022/01/28 08:50:48;;;;;;;1.10;0.52;;;;;;;;;;5056699;28;20225;-62
2022/01/28 08:53:16;;;;;;;1.75;0.60;;;;;;;;;;5071818;28;20215;-62
2022/01/28 08:55:43;;;;;;;1.40;0.90;;;;;;;;;;5076628;28;20463;-63
2022/01/28 08:58:12;;;;;;;1.33;0.55;;;;;;;;;;5076381;28;20197;-62
2022/01/28 09:00:39;;;;;;;2.25;0.65;;;;;;;;;;5076592;28;20231;-62
2022/01/28 09:03:08;;;;;;;1.00;0.70;;;;;;;;;;5076122;28;20311;-62
2022/01/28 09:05:35;;;;;;;1.45;0.65;;;;;;;;;;5075691;28;20212;-62
2022/01/28 09:08:07;;;;;;;0.63;0.50;;;;;;;;;;5070460;28;20197;-62
2022/01/28 09:10:36;;;;;;;1.80;0.50;;;;;;;;;;5057172;28;20637;-62
2022/01/28 09:15:51;;;;;;;1.10;0.50;;;;;;;;;;5066836;28;20203;-62
2022/01/28 09:18:20;;;;;;;0.63;0.40;;;;;;;;;;5077241;28;20212;-62
2022/01/28 09:20:48;;;;;;;1.17;0.70;;;;;;;;;;5076519;28;20520;-62
2022/01/28 09:23:16;;;;;;;1.23;0.70;;;;;;;;;;5077772;28;20215;-62
2022/01/28 09:25:44;;;;;;;1.20;0.40;;;;;;;;;;5077033;28;20197;-62
2022/01/28 09:28:11;;;;;;;1.30;0.70;;;;;;;;;;5076861;28;20619;-62
2022/01/28 09:30:39;;;;;;;1.13;0.50;;;;;;;;;;5075814;28;21776;-62
2022/01/28 09:33:06;;;;;;;1.05;0.50;;;;;;;;;;5076517;28;20204;-62
2022/01/28 09:35:35;;;;;;;1.85;0.60;;;;;;;;;;5073811;28;20205;-62
2022/01/28 09:38:03;;;;;;;2.33;0.60;;;;;;;;;;5062502;28;20197;-62
2022/01/28 09:40:31;;;;;;;4.00;1.08;;;;;;;;;;5074942;28;20223;-62
2022/01/28 09:42:59;;;;;;;3.10;1.23;;;;;;;;;;5070683;28;20197;-62
2022/01/28 09:45:27;;;;;;;2.97;1.27;;;;;;;;;;5063598;28;20202;-62
2022/01/28 09:47:56;;;;;;;3.20;1.52;;;;;;;;;;5074897;28;20201;-62
2022/01/28 09:50:24;;;;;;;4.05;1.45;;;;;;;;;;5036725;28;20288;-62
2022/01/28 09:52:54;;;;;;;3.72;1.30;;;;;;;;;;5055931;28;20208;-62
2022/01/28 09:55:22;;;;;;;5.40;2.05;;;;;;;;;;5056018;28;20205;-62
2022/01/28 09:57:51;;;;;;;3.78;1.83;;;;;;;;;;5055772;28;20262;-62
2022/01/28 10:00:21;;;;;;;4.25;2.00;;;;;;;;;;5055797;28;20221;-62
2022/01/28 10:02:52;;;;;;;2.47;1.40;;;;;;;;;;5055002;28;20209;-62
2022/01/28 10:05:25;;;;;;;5.88;1.70;;;;;;;;;;5056343;28;20208;-62
2022/01/28 10:08:19;;;;;;;5.30;1.75;;;;;;;;;;5043140;28;20197;-64
2022/01/28 10:10:55;;;;;;;5.68;1.75;;;;;;;;;;5027833;28;20215;-63
2022/01/28 10:13:27;;;;;;;6.43;1.95;;;;;;;;;;5075656;28;20263;-63
2022/01/28 10:15:55;;;;;;;4.22;2.13;;;;;;;;;;5074492;28;20541;-63
2022/01/28 10:18:23;;;;;;;6.35;2.00;;;;;;;;;;5074274;28;20208;-63
2022/01/28 10:20:50;;;;;;;4.20;1.98;;;;;;;;;;5076698;28;20211;-63
2022/01/28 10:23:19;;;;;;;4.90;2.30;;;;;;;;;;5076344;28;20211;-62
2022/01/28 10:25:55;;;;;;;3.85;1.90;;;;;;;;;;5076162;28;20258;-63
2022/01/28 10:28:24;;;;;;;4.00;2.08;;;;;;;;;;5074982;28;20199;-64
2022/01/28 10:30:52;;;;;;;5.88;2.10;;;;;;;;;;5071087;28;20197;-63
2022/01/28 10:33:21;;;;;;;4.95;2.28;;;;;;;;;;5055529;28;20227;-63
2022/01/28 10:35:52;;;;;;;4.38;1.90;;;;;;;;;;5067448;28;20200;-63
2022/01/28 10:38:29;;;;;;;5.45;1.90;;;;;;;;;;5069358;28;20679;-63
2022/01/28 10:41:10;;;;;;;4.50;1.90;;;;;;;;;;5054916;28;20208;-63
2022/01/28 10:43:49;;;;;;;3.35;1.83;;;;;;;;;;5055544;28;20216;-63
2022/01/28 10:46:22;;;;;;;5.95;1.95;;;;;;;;;;5071235;28;20220;-63
2022/01/28 10:48:50;;;;;;;4.22;1.67;;;;;;;;;;5067797;28;20600;-62
2022/01/28 10:51:19;;;;;;;3.85;1.63;;;;;;;;;;5074217;28;20235;-64
2022/01/28 10:54:01;;;;;;;3.50;1.90;;;;;;;;;;5074606;28;20200;-63
2022/01/28 10:56:28;;;;;;;4.55;1.70;;;;;;;;;;5074313;28;20203;-64
2022/01/28 10:58:58;;;;;;;2.85;1.63;;;;;;;;;;5074815;28;20275;-64
2022/01/28 11:01:26;;;;;;;6.28;1.45;;;;;;;;;;5074139;28;20265;-62
2022/01/28 11:03:55;;;;;;;3.20;1.50;;;;;;;;;;5074564;28;20200;-62
2022/01/28 11:06:22;;;;;;;5.35;1.95;;;;;;;;;;5068540;28;20265;-63
2022/01/28 11:08:50;;;;;;;2.83;1.70;;;;;;;;;;5061899;28;20216;-64
2022/01/28 11:11:17;;;;;;;3.72;1.90;;;;;;;;;;5054565;28;20219;-64
2022/01/28 11:13:45;;;;;;;3.25;1.60;;;;;;;;;;5055123;28;20506;-63
2022/01/28 11:16:14;;;;;;;4.03;1.35;;;;;;;;;;5055859;28;20197;-62
2022/01/28 11:18:42;;;;;;;2.83;1.63;;;;;;;;;;5054009;28;20734;-62
2022/01/28 11:21:14;;;;;;;4.10;1.50;;;;;;;;;;5054394;28;20224;-63
2022/01/28 11:23:50;;;;;;;3.30;1.40;;;;;;;;;;5053862;28;20639;-62
2022/01/28 11:26:19;;;;;;;3.67;1.55;;;;;;;;;;5053872;28;20254;-63
2022/01/28 11:28:47;;;;;;;3.88;1.40;;;;;;;;;;5054187;28;20604;-63
2022/01/28 11:31:17;;;;;;;4.85;1.70;;;;;;;;;;5054275;28;20295;-63
2022/01/28 11:33:45;;;;;;;3.40;1.45;;;;;;;;;;5053429;28;20239;-63
2022/01/28 11:36:12;;;;;;;3.72;1.80;;;;;;;;;;5059538;28;20196;-63
2022/01/28 11:38:44;;;;;;;3.92;1.58;;;;;;;;;;5071597;28;20197;-63
2022/01/28 11:41:13;;;;;;;4.70;1.60;;;;;;;;;;5069354;28;20216;-63
2022/01/28 11:43:48;;;;;;;3.20;1.55;;;;;;;;;;5064953;28;20212;-64
2022/01/28 11:46:21;;;;;;;2.38;1.30;;;;;;;;;;5073711;28;20599;-63
2022/01/28 11:49:15;;;;;;;2.00;1.23;;;;;;;;;;5072121;28;20211;-63
2022/01/28 11:51:43;;;;;;;2.72;1.55;;;;;;;;;;5065426;28;20208;-63
2022/01/28 11:54:12;;;;;;;2.60;1.20;;;;;;;;;;5070640;28;20196;-63
2022/01/28 11:56:40;;;;;;;2.47;1.20;;;;;;;;;;5070091;28;20219;-62
2022/01/28 11:59:08;;;;;;;3.08;1.30;;;;;;;;;;5067546;28;20216;-62
2022/01/28 12:02:03;;;;;;;2.72;1.33;;;;;;;;;;5055673;28;20228;-63
2022/01/28 12:04:45;;;;;;;3.10;1.30;;;;;;;;;;5018055;28;20192;-63
2022/01/28 12:07:15;;;;;;;2.60;1.45;;;;;;;;;;5054967;28;20208;-63
2022/01/28 12:09:44;;;;;;;2.88;1.30;;;;;;;;;;5057857;28;20581;-62
2022/01/28 12:12:13;;;;;;;3.10;1.15;;;;;;;;;;5068813;28;20196;-62
2022/01/28 12:15:11;;;;;;;3.10;1.17;;;;;;;;;;5073885;28;20231;-63
2022/01/28 12:17:42;;;;;;;1.77;1.10;;;;;;;;;;5057780;28;20600;-63
2022/01/28 12:20:23;;;;;;;2.85;1.42;;;;;;;;;;5059874;28;20219;-63
2022/01/28 12:23:04;;;;;;;2.15;1.02;;;;;;;;;;5073452;28;20568;-63
2022/01/28 12:25:55;;;;;;;1.98;1.00;;;;;;;;;;5073580;28;20200;-63
2022/01/28 12:28:23;;;;;;;1.50;0.98;;;;;;;;;;5061674;28;20197;-63
2022/01/28 12:30:52;;;;;;;1.83;1.02;;;;;;;;;;5052473;28;20197;-63
2022/01/28 12:33:22;;;;;;;4.53;1.15;;;;;;;;;;5053377;28;20205;-63
2022/01/28 12:35:53;;;;;;;1.90;1.08;;;;;;;;;;5053855;28;20206;-63
2022/01/28 12:38:24;;;;;;;2.47;1.05;;;;;;;;;;5065042;28;20231;-63
2022/01/28 12:40:53;;;;;;;1.90;1.10;;;;;;;;;;5057143;28;20256;-64
2022/01/28 12:43:21;;;;;;;2.17;1.02;;;;;;;;;;5056926;28;20197;-63
2022/01/28 12:45:57;;;;;;;2.67;1.05;;;;;;;;;;5057666;28;20214;-63
2022/01/28 12:48:25;;;;;;;2.13;0.82;;;;;;;;;;5076797;28;20214;-63
2022/01/28 12:50:55;;;;;;;3.38;1.30;;;;;;;;;;5076106;28;20224;-62
2022/01/28 12:53:30;;;;;;;1.88;1.05;;;;;;;;;;5064327;28;20197;-62
2022/01/28 12:55:57;;;;;;;2.63;1.00;;;;;;;;;;5056499;28;20200;-62
2022/01/28 12:58:32;;;;;;;2.00;0.98;;;;;;;;;;5056639;28;20233;-62
2022/01/28 13:01:04;;;;;;;1.20;0.73;;;;;;;;;;5056826;28;20657;-62
2022/01/28 13:03:36;;;;;;;1.30;0.80;;;;;;;;;;5057108;28;20205;-62
2022/01/28 13:08:57;;;;;;;2.10;1.10;;;;;;;;;;5132075;27;20558;-62
2022/01/28 13:11:26;;;;;;;2.45;0.98;;;;;;;;;;5131751;27;20505;-63
2022/01/28 13:13:54;;;;;;;1.80;0.90;;;;;;;;;;5131831;27;20293;-63
2022/01/28 13:16:31;;;;;;;1.92;0.95;;;;;;;;;;5131066;27;20195;-62
2022/01/28 13:18:59;;;;;;;1.27;0.70;;;;;;;;;;5132526;27;20210;-62
2022/01/28 13:21:27;;;;;;;1.33;0.95;;;;;;;;;;5132431;27;20198;-62
2022/01/28 13:24:10;;;;;;;1.63;0.90;;;;;;;;;;5117323;27;20202;-62
2022/01/28 13:26:38;;;;;;;1.85;1.00;;;;;;;;;;5100413;28;20231;-62
2022/01/28 13:29:09;;;;;;;1.52;0.90;;;;;;;;;;5106087;28;20698;-62
2022/01/28 13:31:38;;;;;;;2.00;0.90;;;;;;;;;;5108562;28;20206;-62
2022/01/28 13:34:07;;;;;;;3.22;0.90;;;;;;;;;;5091164;28;20207;-62
2022/01/28 13:36:45;;;;;;;1.48;0.80;;;;;;;;;;5109115;28;20195;-63
2022/01/28 13:39:20;;;;;;;2.80;1.00;;;;;;;;;;5116707;27;20206;-62
2022/01/28 13:41:51;;;;;;;2.22;0.70;;;;;;;;;;5123989;28;20202;-62
2022/01/28 13:44:25;;;;;;;2.33;1.20;;;;;;;;;;5131471;27;20516;-62
2022/01/28 13:46:56;;;;;;;2.03;1.30;;;;;;;;;;5129022;27;20480;-62
2022/01/28 13:49:28;;;;;;;2.50;1.38;;;;;;;;;;5130858;27;20225;-62
2022/01/28 13:52:06;;;;;;;2.53;1.30;;;;;;;;;;5131813;27;20198;-62
2022/01/28 13:54:35;;;;;;;2.17;1.20;;;;;;;;;;5120926;27;20202;-63
2022/01/28 13:57:05;;;;;;;1.90;1.05;;;;;;;;;;5110689;28;20200;-62
2022/01/28 13:59:34;;;;;;;1.70;1.00;;;;;;;;;;5111792;28;20256;-62
2022/01/28 14:02:02;;;;;;;2.20;1.10;;;;;;;;;;5111875;28;20598;-62
2022/01/28 14:04:33;;;;;;;2.58;1.13;;;;;;;;;;5111516;28;20281;-62
2022/01/28 14:07:13;;;;;;;3.03;1.40;;;;;;;;;;5110758;28;20231;-62
2022/01/28 14:09:59;;;;;;;2.83;1.23;;;;;;;;;;5127154;28;20206;-62
2022/01/28 14:12:36;;;;;;;2.22;1.20;;;;;;;;;;5131509;27;20207;-62
2022/01/28 14:15:13;;;;;;;2.33;1.20;;;;;;;;;;5130874;27;20202;-62
2022/01/28 14:17:40;;;;;;;2.47;1.38;;;;;;;;;;5116006;28;20190;-62
2022/01/28 14:20:08;;;;;;;3.10;1.10;;;;;;;;;;5118598;27;20211;-62
2022/01/28 14:22:36;;;;;;;1.98;1.00;;;;;;;;;;5117480;28;20199;-62
2022/01/28 14:25:04;;;;;;;14.55;11.15;;;;;;;;;;5111625;28;20211;-64
2022/01/28 14:30:21;;;;;;;51.35;38.33;;;;;;;;;;5090157;28;20233;-62
2022/01/28 14:32:48;;;;;;;44.95;33.45;;;;;;;;;;5082397;28;20196;-64
2022/01/28 14:35:17;;;;;;;40.58;31.90;;;;;;;;;;5096538;28;20615;-62
2022/01/28 14:37:46;;;;;;;37.08;28.92;;;;;;;;;;5109538;28;20759;-62
2022/01/28 14:40:14;;;;;;;32.13;26.63;;;;;;;;;;5097009;28;20203;-62
2022/01/28 14:42:43;;;;;;;35.13;26.00;;;;;;;;;;5077259;28;20501;-64
2022/01/28 14:45:11;;;;;;;29.30;24.25;;;;;;;;;;5076928;28;20197;-62
2022/01/28 14:47:39;;;;;;;28.50;22.20;;;;;;;;;;5096031;28;20219;-62
2022/01/28 14:50:07;;;;;;;26.85;21.45;;;;;;;;;;5097603;28;20204;-62
2022/01/28 14:52:34;;;;;;;26.80;20.83;;;;;;;;;;5114722;28;20211;-62
2022/01/28 14:55:02;;;;;;;26.13;19.98;;;;;;;;;;5113526;27;20203;-62
2022/01/28 14:57:30;;;;;;;25.15;19.63;;;;;;;;;;5097539;28;20484;-62
2022/01/28 14:59:59;;;;;;;21.30;17.25;;;;;;;;;;5093394;28;20271;-63
2022/01/28 15:02:27;;;;;;;20.42;16.55;;;;;;;;;;5094726;28;20594;-64
2022/01/28 15:04:55;;;;;;;19.23;15.35;;;;;;;;;;5104500;28;20530;-62
2022/01/28 15:07:25;;;;;;;19.17;15.57;;;;;;;;;;5097668;28;20239;-64
2022/01/28 15:09:54;;;;;;;17.20;13.73;;;;;;;;;;5115751;28;20571;-62
2022/01/28 15:12:22;;;;;;;17.13;13.13;;;;;;;;;;5116852;28;20252;-62
2022/01/28 15:14:49;;;;;;;16.35;12.68;;;;;;;;;;5116846;28;20203;-61
2022/01/28 15:17:18;;;;;;;15.45;12.05;;;;;;;;;;5115403;28;20215;-64
2022/01/28 15:19:46;;;;;;;14.35;12.18;;;;;;;;;;5116043;28;20199;-63
2022/01/28 15:22:13;;;;;;;13.15;11.00;;;;;;;;;;5116388;28;20203;-63
2022/01/28 15:24:41;;;;;;;12.60;10.65;;;;;;;;;;5117277;28;20203;-64
2022/01/28 15:27:09;;;;;;;12.13;10.82;;;;;;;;;;5117158;28;20199;-64
2022/01/28 15:29:58;;;;;;;11.25;9.60;;;;;;;;;;5097778;27;20188;-64
2022/01/28 15:35:39;;;;;;;10.63;8.57;;;;;;;;;;5103962;28;20202;-63
2022/01/28 15:38:07;;;;;;;9.98;7.80;;;;;;;;;;5109343;28;20196;-63
2022/01/28 15:40:34;;;;;;;9.88;7.82;;;;;;;;;;5095940;28;20498;-63
2022/01/28 15:43:02;;;;;;;8.73;7.38;;;;;;;;;;5095986;28;20199;-63
2022/01/28 15:45:31;;;;;;;8.90;7.60;;;;;;;;;;5095777;28;20211;-63
2022/01/28 15:48:00;;;;;;;9.07;7.15;;;;;;;;;;5112601;28;20507;-63
2022/01/28 15:50:28;;;;;;;9.68;7.07;;;;;;;;;;5115555;28;20233;-63
2022/01/28 15:52:55;;;;;;;9.13;6.63;;;;;;;;;;5115098;28;20217;-63